createdAt,value
2023-03-05T00:04:41.468Z,13.38
2023-03-05T00:09:44.960Z,13.82
2023-03-05T00:14:48.458Z,15.27
2023-03-05T00:19:53.551Z,13.95
2023-03-05T00:24:56.930Z,13.75
2023-03-05T00:30:00.598Z,12.52
2023-03-05T00:35:06.262Z,13.00
2023-03-05T00:40:11.194Z,13.77
2023-03-05T00:45:14.880Z,13.90
2023-03-05T00:50:19.848Z,12.38
2023-03-05T00:55:23.339Z,13.32
2023-03-05T01:00:26.917Z,13.30
2023-03-05T01:05:32.022Z,12.38
2023-03-05T01:10:35.799Z,13.07
2023-03-05T01:15:39.591Z,11.18
2023-03-05T01:20:44.575Z,11.57
2023-03-05T01:25:54.513Z,11.40
2023-03-05T01:30:58.052Z,12.20
2023-03-05T01:36:03.019Z,11.55
2023-03-05T01:41:07.739Z,11.82
2023-03-05T01:46:38.905Z,9.43
2023-03-05T01:51:50.611Z,9.90
2023-03-05T01:56:58.272Z,10.68
2023-03-05T02:02:02.696Z,9.23
2023-03-05T02:07:09.232Z,8.80
2023-03-05T02:12:14.299Z,9.20
2023-03-05T02:17:18.702Z,9.38
2023-03-05T02:22:25.549Z,10.32
2023-03-05T02:27:35.714Z,9.35
2023-03-05T02:32:45.003Z,10.48
2023-03-05T02:37:50.938Z,10.82
2023-03-05T02:42:55.112Z,9.95
2023-03-05T02:47:58.870Z,9.27
2023-03-05T02:53:04.199Z,9.02
2023-03-05T02:58:32.201Z,10.77
2023-03-05T03:03:36.072Z,10.38
2023-03-05T03:08:40.971Z,9.68
2023-03-05T03:13:44.494Z,9.23
2023-03-05T03:18:53.187Z,9.10
2023-03-05T03:23:58.078Z,8.77
2023-03-05T03:29:01.638Z,9.23
2023-03-05T03:34:05.091Z,9.80
2023-03-05T03:39:11.196Z,8.70
2023-03-05T03:44:17.529Z,10.05
2023-03-05T03:49:23.193Z,8.60
2023-03-05T03:54:28.095Z,8.27
2023-03-05T03:59:31.617Z,9.15
2023-03-05T04:04:35.075Z,9.10
2023-03-05T04:09:40.309Z,8.77
2023-03-05T04:14:43.759Z,8.95
2023-03-05T04:19:47.271Z,9.05
2023-03-05T04:24:52.132Z,9.70
2023-03-05T04:29:55.728Z,9.52
2023-03-05T04:34:59.363Z,9.50
2023-03-05T04:40:05.299Z,7.88
2023-03-05T04:45:11.289Z,9.77
2023-03-05T04:50:15.242Z,8.98
2023-03-05T04:55:20.346Z,10.80
2023-03-05T05:00:23.948Z,10.10
2023-03-05T05:05:29.216Z,10.05
2023-03-05T05:10:34.545Z,10.43
2023-03-05T05:15:38.104Z,9.25
2023-03-05T05:20:41.658Z,9.32
2023-03-05T05:25:46.588Z,8.45
2023-03-05T05:30:49.995Z,9.43
2023-03-05T05:35:53.520Z,8.88
2023-03-05T05:41:05.139Z,8.63
2023-03-05T05:46:10.396Z,8.70
2023-03-05T05:51:16.675Z,9.20
2023-03-05T05:56:21.704Z,8.65
2023-03-05T06:01:28.879Z,9.30
2023-03-05T06:06:33.547Z,9.00
2023-03-05T06:11:39.052Z,8.32
2023-03-05T06:16:42.660Z,9.48
2023-03-05T06:21:46.151Z,8.43
2023-03-05T06:26:50.981Z,8.93
2023-03-05T06:31:54.525Z,9.93
2023-03-05T06:36:58.498Z,9.57
2023-03-05T06:42:03.620Z,10.02
2023-03-05T06:47:07.536Z,9.77
2023-03-05T06:52:12.818Z,10.18
2023-03-05T06:57:18.085Z,10.60
2023-03-05T07:02:43.975Z,9.82
2023-03-05T07:07:47.645Z,10.00
2023-03-05T07:12:52.548Z,9.98
2023-03-05T07:17:56.602Z,9.85
2023-03-05T07:23:00.115Z,9.93
2023-03-05T07:28:07.124Z,9.50
2023-03-05T07:33:10.581Z,9.50
2023-03-05T07:38:14.225Z,8.98
2023-03-05T07:43:19.181Z,9.50
2023-03-05T07:48:22.617Z,9.68
2023-03-05T07:53:26.117Z,9.15
2023-03-05T07:58:35.708Z,10.05
2023-03-05T08:03:46.758Z,9.43
2023-03-05T08:08:51.607Z,10.48
2023-03-05T08:13:59.621Z,10.32
2023-03-05T08:19:05.250Z,10.43
2023-03-05T08:24:14.847Z,9.95
2023-03-05T08:29:19.904Z,12.07
2023-03-05T08:34:23.316Z,10.40
2023-03-05T08:39:27.100Z,9.75
2023-03-05T08:44:32.441Z,9.45
2023-03-05T08:49:36.039Z,10.85
2023-03-05T08:54:39.778Z,10.63
2023-03-05T08:59:44.994Z,12.48
2023-03-05T09:04:48.747Z,10.90
2023-03-05T09:09:52.232Z,13.48
2023-03-05T09:14:57.304Z,10.82
2023-03-05T09:20:00.763Z,10.60
2023-03-05T09:25:59.580Z,11.80
2023-03-05T09:31:55.940Z,10.60
2023-03-05T09:37:00.886Z,10.50
2023-03-05T09:42:17.132Z,12.75
2023-03-05T09:47:34.290Z,11.30
2023-03-05T09:52:44.340Z,10.65
2023-03-05T09:57:54.838Z,10.60
2023-03-05T10:03:02.450Z,12.98
2023-03-05T10:08:08.442Z,11.05
2023-03-05T10:13:20.892Z,11.35
2023-03-05T10:18:34.156Z,11.68
2023-03-05T10:23:52.842Z,12.27
2023-03-05T10:29:08.212Z,14.55
2023-03-05T10:34:48.339Z,12.60
2023-03-05T10:40:09.913Z,13.75
2023-03-05T10:45:16.798Z,12.20
2023-03-05T10:50:23.714Z,12.40
2023-03-05T10:55:28.836Z,11.93
2023-03-05T11:00:34.646Z,13.77
2023-03-05T11:05:43.234Z,13.70
2023-03-05T11:10:48.291Z,14.23
2023-03-05T11:16:01.252Z,12.85
2023-03-05T11:21:10.772Z,14.23
2023-03-05T11:26:23.929Z,14.30
2023-03-05T11:31:29.803Z,12.15
2023-03-05T11:36:37.099Z,11.85
2023-03-05T11:41:46.030Z,13.48
2023-03-05T11:46:54.843Z,11.82
2023-03-05T11:52:03.221Z,13.50
2023-03-05T11:57:14.377Z,12.20
2023-03-05T12:02:21.619Z,11.68
2023-03-05T12:07:35.558Z,11.55
2023-03-05T12:12:48.780Z,12.30
2023-03-05T12:18:03.958Z,11.35
2023-03-05T12:23:13.000Z,11.75
2023-03-05T12:28:39.333Z,11.88
2023-03-05T12:33:44.601Z,11.95
2023-03-05T12:38:51.854Z,13.52
2023-03-05T12:49:39.302Z,12.13
2023-03-05T12:59:52.654Z,11.35
2023-03-05T13:05:04.882Z,10.43
2023-03-05T13:10:23.781Z,9.60
2023-03-05T13:15:28.117Z,11.13
2023-03-05T13:20:37.716Z,10.32
2023-03-05T13:25:41.283Z,10.18
2023-03-05T13:30:51.758Z,9.63
2023-03-05T13:35:57.197Z,8.63
2023-03-05T13:41:19.538Z,9.95
2023-03-05T13:46:29.367Z,9.63
2023-03-05T13:51:45.091Z,11.90
2023-03-05T13:56:54.258Z,9.65
2023-03-05T14:01:59.680Z,9.70
2023-03-05T14:07:07.023Z,9.95
2023-03-05T14:12:27.204Z,9.32
2023-03-05T14:17:39.677Z,10.00
2023-03-05T14:22:49.335Z,9.35
2023-03-05T14:27:52.991Z,11.35
2023-03-05T14:32:57.952Z,10.00
2023-03-05T14:38:03.732Z,9.55
2023-03-05T14:43:08.086Z,9.98
